Time,TemperatureF,DewpointF,PressureIn,WindDirection,WindDirectionDegrees,WindSpeedMPH,WindSpeedGustMPH,Humidity,HourlyPrecipIn,Conditions,Clouds,dailyrainin,SoftwareType,DateUTC
2013-01-22 00:00:00,68.2,61.1,29.67,WNW,292,14.3,14.3,78,0.00,,---,0.04,VWS V13.01,2013-01-22 05:00:00,
2013-01-22 00:05:00,68.2,61.1,29.68,WNW,292,0.0,14.3,78,0.00,,---,0.02,VWS V13.01,2013-01-22 05:05:00,
2013-01-22 00:10:00,68.2,61.1,29.67,WNW,292,0.0,0.0,78,0.00,,---,0.02,VWS V13.01,2013-01-22 05:10:00,
2013-01-22 00:15:00,68.2,61.1,29.67,WNW,292,8.7,8.7,78,0.00,,---,0.02,VWS V13.01,2013-01-22 05:15:00,
2013-01-22 00:20:00,68.2,61.1,29.68,NW,315,21.0,21.0,78,0.00,,---,0.02,VWS V13.01,2013-01-22 05:20:00,
2013-01-22 00:30:00,67.8,60.7,29.68,NW,315,7.2,7.2,78,0.00,,---,0.02,VWS V13.01,2013-01-22 05:30:00,
2013-01-22 00:40:00,67.6,60.5,29.68,NW,315,1.1,19.0,78,0.00,,---,0.02,VWS V13.01,2013-01-22 05:40:00,
2013-01-22 00:45:00,67.6,60.5,29.68,West,270,13.0,13.0,78,0.00,,---,0.02,VWS V13.01,2013-01-22 05:45:00,
2013-01-22 00:55:00,67.5,60.7,29.67,NNW,338,0.0,13.6,79,0.00,,---,0.02,VWS V13.01,2013-01-22 05:55:00,
2013-01-22 01:00:00,67.3,60.5,29.67,NNW,338,20.4,20.4,79,0.00,,---,0.02,VWS V13.01,2013-01-22 06:00:00,
2013-01-22 01:05:00,67.3,60.5,29.67,NNW,338,20.4,20.4,79,0.00,,---,0.02,VWS V13.01,2013-01-22 06:05:00,
2013-01-22 01:10:00,67.3,60.5,29.67,NNW,338,20.4,20.4,79,0.00,,---,0.02,VWS V13.01,2013-01-22 06:10:00,
2013-01-22 01:15:00,67.3,60.5,29.67,NNW,338,20.4,20.4,79,0.00,,---,0.02,VWS V13.01,2013-01-22 06:15:00,
2013-01-22 01:25:00,67.3,60.5,29.67,WNW,292,15.2,15.2,79,0.00,,---,0.02,VWS V13.01,2013-01-22 06:25:00,
2013-01-22 01:35:00,67.3,60.5,29.67,NW,315,15.9,15.9,79,0.00,,---,0.02,VWS V13.01,2013-01-22 06:35:00,
2013-01-22 01:45:00,67.3,60.5,29.66,NW,315,9.4,14.8,79,0.00,,---,0.02,VWS V13.01,2013-01-22 06:45:00,
2013-01-22 01:55:00,67.1,60.4,29.66,WNW,292,1.3,17.7,79,0.00,,---,0.02,VWS V13.01,2013-01-22 06:55:00,
2013-01-22 02:00:00,66.9,60.2,29.66,NW,315,3.6,3.6,79,0.00,,---,0.02,VWS V13.01,2013-01-22 07:00:00,
2013-01-22 02:10:00,66.9,60.2,29.66,NW,315,3.6,3.6,79,0.00,,---,0.02,VWS V13.01,2013-01-22 07:10:00,
2013-01-22 02:15:00,66.7,60.0,29.66,NW,315,13.2,13.2,79,0.00,,---,0.02,VWS V13.01,2013-01-22 07:15:00,
2013-01-22 02:20:00,66.7,60.0,29.66,NNW,338,0.7,13.2,79,0.00,,---,0.02,VWS V13.01,2013-01-22 07:20:00,
2013-01-22 02:30:00,66.6,59.8,29.66,WNW,292,2.0,16.8,79,0.00,,---,0.02,VWS V13.01,2013-01-22 07:30:00,
2013-01-22 02:40:00,66.4,60.0,29.66,West,270,16.1,16.1,80,0.00,,---,0.02,VWS V13.01,2013-01-22 07:40:00,
2013-01-22 02:50:00,66.4,60.0,29.65,West,270,18.8,18.8,80,0.00,,---,0.02,VWS V13.01,2013-01-22 07:50:00,
2013-01-22 03:00:00,66.4,60.0,29.65,WNW,292,9.6,9.6,80,0.00,,---,0.02,VWS V13.01,2013-01-22 08:00:00,
2013-01-22 03:05:00,66.4,60.0,29.65,WNW,292,9.6,9.6,80,0.00,,---,0.02,VWS V13.01,2013-01-22 08:05:00,
2013-01-22 03:10:00,66.4,60.0,29.65,WNW,292,9.6,9.6,80,0.00,,---,0.02,VWS V13.01,2013-01-22 08:10:00,
2013-01-22 03:20:00,66.0,59.7,29.65,North,0,7.4,7.4,80,0.00,,---,0.02,VWS V13.01,2013-01-22 08:20:00,
2013-01-22 03:30:00,65.8,59.5,29.65,WNW,292,4.9,4.9,80,0.00,,---,0.02,VWS V13.01,2013-01-22 08:30:00,
2013-01-22 03:40:00,65.8,59.5,29.65,WNW,292,14.1,14.1,80,0.00,,---,0.02,VWS V13.01,2013-01-22 08:40:00,
2013-01-22 03:45:00,65.8,59.5,29.65,NW,315,1.3,20.1,80,0.00,,---,0.02,VWS V13.01,2013-01-22 08:45:00,
2013-01-22 03:55:00,65.7,59.0,29.66,WNW,292,0.0,2.2,79,0.00,,---,0.02,VWS V13.01,2013-01-22 08:55:00,
2013-01-22 04:00:00,65.7,59.0,29.66,NW,315,6.5,6.5,79,0.00,,---,0.02,VWS V13.01,2013-01-22 09:00:00,
2013-01-22 04:10:00,65.7,59.0,29.65,NNW,338,18.1,18.1,79,0.00,,---,0.02,VWS V13.01,2013-01-22 09:10:00,
2013-01-22 04:15:00,65.5,58.8,29.65,WNW,292,0.4,18.1,79,0.00,,---,0.02,VWS V13.01,2013-01-22 09:15:00,
2013-01-22 04:25:00,65.7,59.0,29.65,WNW,292,12.3,15.9,79,0.00,,---,0.02,VWS V13.01,2013-01-22 09:25:00,
2013-01-22 04:30:00,65.5,58.8,29.65,NW,315,0.4,12.3,79,0.00,,---,0.02,VWS V13.01,2013-01-22 09:30:00,
2013-01-22 04:40:00,65.5,58.8,29.65,WNW,292,0.0,0.0,79,0.00,,---,0.02,VWS V13.01,2013-01-22 09:40:00,
2013-01-22 04:45:00,65.5,58.5,29.65,NW,315,1.3,1.3,78,0.00,,---,0.02,VWS V13.01,2013-01-22 09:45:00,
2013-01-22 04:55:00,65.3,58.3,29.66,NW,315,4.0,4.0,78,0.00,,---,0.02,VWS V13.01,2013-01-22 09:55:00,
2013-01-22 05:05:00,65.1,58.1,29.66,WNW,292,0.9,9.4,78,0.00,,---,0.02,VWS V13.01,2013-01-22 10:05:00,
2013-01-22 05:15:00,65.1,58.1,29.67,NW,315,1.8,6.0,78,0.00,,---,0.02,VWS V13.01,2013-01-22 10:15:00,
2013-01-22 05:25:00,65.1,58.1,29.68,West,270,2.2,9.8,78,0.00,,---,0.02,VWS V13.01,2013-01-22 10:25:00,
2013-01-22 05:35:00,64.9,57.9,29.68,WNW,292,12.8,12.8,78,0.00,,---,0.02,VWS V13.01,2013-01-22 10:35:00,
2013-01-22 05:45:00,64.9,57.9,29.68,NW,315,0.0,12.5,78,0.00,,---,0.02,VWS V13.01,2013-01-22 10:45:00,
2013-01-22 05:50:00,64.9,57.9,29.68,NW,315,9.4,9.4,78,0.00,,---,0.02,VWS V13.01,2013-01-22 10:50:00,
2013-01-22 06:00:00,64.8,57.8,29.68,WNW,292,11.6,11.6,78,0.00,,---,0.02,VWS V13.01,2013-01-22 11:00:00,
2013-01-22 06:15:00,64.8,57.4,29.69,NW,315,0.4,12.8,77,0.00,,---,0.02,VWS V13.01,2013-01-22 11:15:00,
2013-01-22 06:20:00,64.8,57.4,29.69,WNW,292,0.0,0.4,77,0.00,,---,0.02,VWS V13.01,2013-01-22 11:20:00,
2013-01-22 06:30:00,64.6,57.6,29.70,NW,315,4.7,4.7,78,0.00,,---,0.02,VWS V13.01,2013-01-22 11:30:00,
2013-01-22 06:35:00,64.6,57.6,29.70,NNW,338,20.1,20.1,78,0.00,,---,0.02,VWS V13.01,2013-01-22 11:35:00,
2013-01-22 06:45:00,64.2,57.2,29.70,NW,315,13.9,13.9,78,0.00,,---,0.02,VWS V13.01,2013-01-22 11:45:00,
2013-01-22 06:50:00,64.2,57.2,29.70,NW,315,20.1,20.1,78,0.00,,---,0.02,VWS V13.01,2013-01-22 11:50:00,
2013-01-22 07:00:00,64.2,57.2,29.71,NNW,338,0.0,3.8,78,0.00,,---,0.02,VWS V13.01,2013-01-22 12:00:00,
2013-01-22 07:10:00,64.0,57.0,29.71,NNW,338,0.4,11.9,78,0.00,,---,0.02,VWS V13.01,2013-01-22 12:10:00,
2013-01-22 07:20:00,64.0,57.0,29.72,NW,315,0.4,1.1,78,0.00,,---,0.02,VWS V13.01,2013-01-22 12:20:00,
2013-01-22 07:30:00,63.9,56.9,29.72,NNW,338,0.2,2.2,78,0.00,,---,0.02,VWS V13.01,2013-01-22 12:30:00,
2013-01-22 07:35:00,64.0,57.0,29.72,NNW,338,2.9,2.9,78,0.00,,---,0.02,VWS V13.01,2013-01-22 12:35:00,
2013-01-22 07:40:00,63.9,56.9,29.72,NNW,338,5.1,5.1,78,0.00,,---,0.02,VWS V13.01,2013-01-22 12:40:00,
2013-01-22 07:50:00,63.7,56.7,29.73,NNW,338,0.7,1.3,78,0.00,,---,0.02,VWS V13.01,2013-01-22 12:50:00,
2013-01-22 08:00:00,64.2,56.9,29.73,NW,315,17.0,17.0,77,0.00,,---,0.02,VWS V13.01,2013-01-22 13:00:00,
2013-01-22 08:05:00,64.2,56.9,29.73,NW,315,11.4,17.0,77,0.00,,---,0.00,VWS V13.01,2013-01-22 13:05:00,
2013-01-22 08:15:00,64.8,57.0,29.74,NNE,22,0.4,0.9,76,0.00,,---,0.00,VWS V13.01,2013-01-22 13:15:00,
2013-01-22 08:25:00,65.5,57.7,29.74,West,270,2.7,5.4,76,0.00,,---,0.00,VWS V13.01,2013-01-22 13:25:00,
2013-01-22 08:35:00,65.8,57.7,29.74,NW,315,1.3,2.7,75,0.00,,---,0.00,VWS V13.01,2013-01-22 13:35:00,
2013-01-22 08:45:00,66.0,57.5,29.75,NW,315,19.9,19.9,74,0.00,,---,0.00,VWS V13.01,2013-01-22 13:45:00,
2013-01-22 08:55:00,66.4,57.8,29.75,NW,315,2.7,19.9,74,0.00,,---,0.00,VWS V13.01,2013-01-22 13:55:00,
2013-01-22 09:05:00,66.7,57.8,29.75,NNW,338,6.9,6.9,73,0.00,,---,0.00,VWS V13.01,2013-01-22 14:05:00,
2013-01-22 09:10:00,67.5,58.5,29.75,NNW,338,6.9,6.9,73,0.00,,---,0.00,VWS V13.01,2013-01-22 14:10:00,
2013-01-22 09:20:00,67.8,58.1,29.76,NNW,338,5.8,5.8,71,0.00,,---,0.00,VWS V13.01,2013-01-22 14:20:00,
2013-01-22 09:25:00,68.5,58.4,29.76,NNE,22,4.5,7.2,70,0.00,,---,0.00,VWS V13.01,2013-01-22 14:25:00,
2013-01-22 09:35:00,68.7,58.2,29.76,NNW,338,3.4,3.4,69,0.00,,---,0.00,VWS V13.01,2013-01-22 14:35:00,
2013-01-22 09:45:00,69.6,58.6,29.76,NE,45,10.3,13.2,68,0.00,,---,0.00,VWS V13.01,2013-01-22 14:45:00,
2013-01-22 09:55:00,70.0,58.5,29.77,North,0,6.9,6.9,67,0.00,,---,0.00,VWS V13.01,2013-01-22 14:55:00,
2013-01-22 10:05:00,70.2,58.3,29.77,NNW,338,4.0,6.7,66,0.00,,---,0.00,VWS V13.01,2013-01-22 15:05:00,
2013-01-22 10:10:00,70.5,59.0,29.77,NNW,338,7.2,7.2,67,0.00,,---,0.00,VWS V13.01,2013-01-22 15:10:00,
2013-01-22 10:20:00,70.7,58.4,29.77,NW,315,0.0,6.0,65,0.00,,---,0.00,VWS V13.01,2013-01-22 15:20:00,
2013-01-22 10:30:00,71.2,58.9,29.78,NNW,338,8.5,8.5,65,0.00,,---,0.00,VWS V13.01,2013-01-22 15:30:00,
2013-01-22 10:40:00,72.1,59.3,29.77,NW,315,0.7,11.9,64,0.00,,---,0.00,VWS V13.01,2013-01-22 15:40:00,
2013-01-22 10:50:00,72.9,59.1,29.77,North,0,14.1,14.1,62,0.00,,---,0.00,VWS V13.01,2013-01-22 15:50:00,
2013-01-22 11:00:00,73.4,59.6,29.77,North,0,6.7,8.3,62,0.00,,---,0.00,VWS V13.01,2013-01-22 16:00:00,
2013-01-22 11:10:00,74.1,59.8,29.77,NE,45,9.0,9.0,61,0.00,,---,0.00,VWS V13.01,2013-01-22 16:10:00,
2013-01-22 11:20:00,74.5,60.2,29.76,NNW,338,2.2,6.7,61,0.00,,---,0.00,VWS V13.01,2013-01-22 16:20:00,
2013-01-22 11:30:00,74.7,59.9,29.76,NE,45,7.8,7.8,60,0.00,,---,0.00,VWS V13.01,2013-01-22 16:30:00,
2013-01-22 11:40:00,75.0,59.7,29.76,NNW,338,15.9,15.9,59,0.00,,---,0.00,VWS V13.01,2013-01-22 16:40:00,
2013-01-22 11:50:00,75.0,60.2,29.76,North,0,7.4,15.7,60,0.00,,---,0.00,VWS V13.01,2013-01-22 16:50:00,
2013-01-22 12:00:00,75.4,60.1,29.76,North,0,7.6,15.0,59,0.00,,---,0.00,VWS V13.01,2013-01-22 17:00:00,
2013-01-22 12:10:00,75.6,60.2,29.76,NNW,338,2.5,6.3,59,0.00,,---,0.00,VWS V13.01,2013-01-22 17:10:00,
2013-01-22 12:20:00,75.4,60.1,29.75,NW,315,9.6,10.5,59,0.00,,---,0.00,VWS V13.01,2013-01-22 17:20:00,
2013-01-22 12:30:00,75.0,59.7,29.75,NE,45,6.0,6.0,59,0.00,,---,0.00,VWS V13.01,2013-01-22 17:30:00,
2013-01-22 12:35:00,74.8,59.6,29.74,NNE,22,7.8,7.8,59,0.00,,---,0.00,VWS V13.01,2013-01-22 17:35:00,
2013-01-22 12:45:00,76.1,60.3,29.75,NNW,338,2.2,15.4,58,0.00,,---,0.00,VWS V13.01,2013-01-22 17:45:00,
2013-01-22 12:55:00,76.5,60.1,29.74,North,0,8.5,14.5,57,0.00,,---,0.00,VWS V13.01,2013-01-22 17:55:00,
2013-01-22 13:00:00,76.3,58.9,29.74,North,0,9.0,9.0,55,0.00,,---,0.00,VWS V13.01,2013-01-22 18:00:00,
2013-01-22 13:10:00,75.4,58.6,29.74,NE,45,2.2,11.0,56,0.00,,---,0.00,VWS V13.01,2013-01-22 18:10:00,
2013-01-22 13:20:00,75.0,58.3,29.73,NNE,22,10.1,10.1,56,0.00,,---,0.00,VWS V13.01,2013-01-22 18:20:00,
2013-01-22 13:30:00,75.4,58.6,29.73,North,0,7.6,9.2,56,0.00,,---,0.00,VWS V13.01,2013-01-22 18:30:00,
2013-01-22 13:40:00,75.9,58.6,29.73,NNE,22,4.3,12.3,55,0.00,,---,0.00,VWS V13.01,2013-01-22 18:40:00,
2013-01-22 13:50:00,75.9,58.6,29.73,North,0,14.5,14.5,55,0.00,,---,0.00,VWS V13.01,2013-01-22 18:50:00,
2013-01-22 13:55:00,75.9,58.1,29.73,North,0,6.9,14.5,54,0.00,,---,0.00,VWS V13.01,2013-01-22 18:55:00,
2013-01-22 14:05:00,75.4,58.1,29.73,North,0,3.8,9.6,55,0.00,,---,0.00,VWS V13.01,2013-01-22 19:05:00,
2013-01-22 14:10:00,75.0,58.3,29.73,NE,45,9.2,10.3,56,0.00,,---,0.00,VWS V13.01,2013-01-22 19:10:00,
2013-01-22 14:20:00,74.5,58.3,29.73,NNE,22,13.0,13.0,57,0.00,,---,0.00,VWS V13.01,2013-01-22 19:20:00,
2013-01-22 14:30:00,74.1,58.4,29.72,NNW,338,8.5,8.7,58,0.00,,---,0.00,VWS V13.01,2013-01-22 19:30:00,
2013-01-22 14:40:00,73.8,58.5,29.73,North,0,21.5,21.5,59,0.00,,---,0.00,VWS V13.01,2013-01-22 19:40:00,
2013-01-22 14:50:00,73.9,58.2,29.73,North,0,9.0,15.2,58,0.00,,---,0.00,VWS V13.01,2013-01-22 19:50:00,
2013-01-22 14:55:00,73.8,58.1,29.73,North,0,10.1,18.3,58,0.00,,---,0.00,VWS V13.01,2013-01-22 19:55:00,
2013-01-22 15:05:00,74.1,58.9,29.74,WSW,248,10.3,10.7,59,0.00,,---,0.00,VWS V13.01,2013-01-22 20:05:00,
2013-01-22 15:10:00,74.3,58.6,29.74,WSW,248,10.3,10.3,58,0.00,,---,0.00,VWS V13.01,2013-01-22 20:10:00,
2013-01-22 15:20:00,74.5,58.3,29.74,WSW,248,10.3,14.8,57,0.00,,---,0.00,VWS V13.01,2013-01-22 20:20:00,
2013-01-22 15:30:00,74.3,58.1,29.74,WSW,248,8.3,8.3,57,0.00,,---,0.00,VWS V13.01,2013-01-22 20:30:00,
2013-01-22 15:40:00,73.8,57.6,29.75,WSW,248,7.4,16.8,57,0.00,,---,0.00,VWS V13.01,2013-01-22 20:40:00,
2013-01-22 15:50:00,73.2,57.1,29.76,North,0,3.4,9.4,57,0.00,,---,0.00,VWS V13.01,2013-01-22 20:50:00,
2013-01-22 16:00:00,73.4,57.3,29.75,WSW,248,5.6,14.8,57,0.00,,---,0.00,VWS V13.01,2013-01-22 21:00:00,
2013-01-22 16:10:00,73.9,57.3,29.76,WSW,248,13.2,13.2,56,0.00,,---,0.00,VWS V13.01,2013-01-22 21:10:00,
2013-01-22 16:20:00,74.1,57.9,29.76,WSW,248,15.0,15.0,57,0.00,,---,0.00,VWS V13.01,2013-01-22 21:20:00,
2013-01-22 16:30:00,74.1,57.9,29.76,NNE,22,8.5,9.2,57,0.00,,---,0.00,VWS V13.01,2013-01-22 21:30:00,
2013-01-22 16:40:00,72.7,57.1,29.76,North,0,9.4,13.6,58,0.00,,---,0.00,VWS V13.01,2013-01-22 21:40:00,
2013-01-22 16:45:00,72.5,56.9,29.76,ENE,68,3.8,9.4,58,0.00,,---,0.00,VWS V13.01,2013-01-22 21:45:00,
2013-01-22 16:55:00,72.3,57.2,29.77,North,0,11.0,11.0,59,0.00,,---,0.00,VWS V13.01,2013-01-22 21:55:00,
2013-01-22 17:05:00,72.1,57.5,29.78,NNW,338,10.7,11.0,60,0.00,,---,0.00,VWS V13.01,2013-01-22 22:05:00,
2013-01-22 17:10:00,72.1,57.0,29.78,NNE,22,5.6,10.7,59,0.00,,---,0.00,VWS V13.01,2013-01-22 22:10:00,
2013-01-22 17:20:00,71.8,56.7,29.77,North,0,6.7,13.4,59,0.00,,---,0.00,VWS V13.01,2013-01-22 22:20:00,
2013-01-22 17:25:00,71.8,56.7,29.78,NNE,22,9.0,9.0,59,0.00,,---,0.00,VWS V13.01,2013-01-22 22:25:00,
2013-01-22 17:35:00,71.2,56.2,29.79,NNE,22,11.0,12.1,59,0.00,,---,0.00,VWS V13.01,2013-01-22 22:35:00,
2013-01-22 17:45:00,71.2,56.2,29.79,ENE,68,4.5,4.5,59,0.00,,---,0.00,VWS V13.01,2013-01-22 22:45:00,
2013-01-22 17:55:00,70.9,55.8,29.79,NE,45,6.0,11.6,59,0.00,,---,0.00,VWS V13.01,2013-01-22 22:55:00,
2013-01-22 18:05:00,70.7,55.7,29.79,North,0,7.6,7.6,59,0.00,,---,0.00,VWS V13.01,2013-01-22 23:05:00,
2013-01-22 18:10:00,70.5,55.5,29.80,NNE,22,7.6,7.6,59,0.00,,---,0.00,VWS V13.01,2013-01-22 23:10:00,
2013-01-22 18:20:00,70.3,54.9,29.80,NNE,22,10.5,10.5,58,0.00,,---,0.00,VWS V13.01,2013-01-22 23:20:00,
2013-01-22 18:25:00,70.3,54.9,29.80,NNW,338,2.2,10.5,58,0.00,,---,0.00,VWS V13.01,2013-01-22 23:25:00,
2013-01-22 18:35:00,70.3,54.9,29.80,NE,45,13.0,13.0,58,0.00,,---,0.00,VWS V13.01,2013-01-22 23:35:00,
2013-01-22 18:40:00,70.3,54.9,29.80,NNE,22,8.1,13.0,58,0.00,,---,0.00,VWS V13.01,2013-01-22 23:40:00,
2013-01-22 18:50:00,70.2,54.7,29.79,ENE,68,3.8,8.7,58,0.00,,---,0.00,VWS V13.01,2013-01-22 23:50:00,
2013-01-22 19:00:00,70.0,54.5,29.81,North,0,7.4,7.4,58,0.00,,---,0.00,VWS V13.01,2013-01-23 00:00:00,
2013-01-22 19:10:00,70.0,54.1,29.81,North,0,6.7,9.0,57,0.00,,---,0.00,VWS V13.01,2013-01-23 00:10:00,
2013-01-22 19:20:00,69.8,53.9,29.81,NE,45,3.6,8.3,57,0.00,,---,0.00,VWS V13.01,2013-01-23 00:20:00,
2013-01-22 19:30:00,69.6,53.7,29.81,SE,135,7.8,11.2,57,0.00,,---,0.00,VWS V13.01,2013-01-23 00:30:00,
2013-01-22 19:40:00,69.6,53.2,29.82,ENE,68,7.6,7.6,56,0.00,,---,0.00,VWS V13.01,2013-01-23 00:40:00,
2013-01-22 19:50:00,69.6,53.7,29.82,ESE,112,10.5,10.5,57,0.00,,---,0.00,VWS V13.01,2013-01-23 00:50:00,
2013-01-22 20:00:00,69.6,53.7,29.82,NNE,22,10.3,10.3,57,0.00,,---,0.00,VWS V13.01,2013-01-23 01:00:00,
2013-01-22 20:10:00,69.6,53.2,29.82,NW,315,7.2,11.2,56,0.00,,---,0.00,VWS V13.01,2013-01-23 01:10:00,
2013-01-22 20:20:00,69.4,53.1,29.82,ENE,68,8.1,11.4,56,0.00,,---,0.00,VWS V13.01,2013-01-23 01:20:00,
2013-01-22 20:30:00,69.4,53.1,29.83,NE,45,8.1,8.1,56,0.00,,---,0.00,VWS V13.01,2013-01-23 01:30:00,
2013-01-22 20:40:00,69.4,52.6,29.83,NE,45,7.2,15.7,55,0.00,,---,0.00,VWS V13.01,2013-01-23 01:40:00,
2013-01-22 20:50:00,69.4,52.6,29.83,NNE,22,8.5,10.7,55,0.00,,---,0.00,VWS V13.01,2013-01-23 01:50:00,
2013-01-22 20:55:00,69.4,53.1,29.83,NE,45,4.5,8.5,56,0.00,,---,0.00,VWS V13.01,2013-01-23 01:55:00,
2013-01-22 21:05:00,69.3,52.9,29.84,North,0,4.7,8.7,56,0.00,,---,0.00,VWS V13.01,2013-01-23 02:05:00,
2013-01-22 21:15:00,69.3,52.9,29.84,NE,45,8.1,8.1,56,0.00,,---,0.00,VWS V13.01,2013-01-23 02:15:00,
2013-01-22 21:25:00,69.3,52.4,29.84,NE,45,4.5,11.4,55,0.00,,---,0.00,VWS V13.01,2013-01-23 02:25:00,
2013-01-22 21:35:00,69.3,52.4,29.85,NE,45,2.0,2.9,55,0.00,,---,0.00,VWS V13.01,2013-01-23 02:35:00,
2013-01-22 21:45:00,69.3,52.4,29.85,NNE,22,6.0,9.8,55,0.00,,---,0.00,VWS V13.01,2013-01-23 02:45:00,
2013-01-22 21:55:00,69.3,52.4,29.86,North,0,12.8,12.8,55,0.00,,---,0.00,VWS V13.01,2013-01-23 02:55:00,
2013-01-22 22:05:00,69.3,52.4,29.86,ENE,68,6.7,7.2,55,0.00,,---,0.00,VWS V13.01,2013-01-23 03:05:00,
2013-01-22 22:10:00,69.1,52.7,29.86,NNE,22,8.3,8.3,56,0.00,,---,0.00,VWS V13.01,2013-01-23 03:10:00,
2013-01-22 22:20:00,69.1,52.7,29.87,NE,45,3.8,3.8,56,0.00,,---,0.00,VWS V13.01,2013-01-23 03:20:00,
2013-01-22 22:30:00,69.1,52.7,29.86,ENE,68,2.9,7.2,56,0.00,,---,0.00,VWS V13.01,2013-01-23 03:30:00,
2013-01-22 22:35:00,68.9,53.1,29.86,NE,45,11.2,11.2,57,0.00,,---,0.00,VWS V13.01,2013-01-23 03:35:00,
2013-01-22 22:45:00,68.9,53.1,29.86,NE,45,12.3,12.3,57,0.00,,---,0.00,VWS V13.01,2013-01-23 03:45:00,
2013-01-22 22:50:00,-22.0,-32.4,29.86,NE,45,12.3,12.3,57,0.00,,---,0.00,VWS V13.01,2013-01-23 03:50:00,
2013-01-22 23:00:00,68.9,53.1,29.86,ENE,68,9.4,9.4,57,0.00,,---,0.00,VWS V13.01,2013-01-23 04:00:00,
2013-01-22 23:05:00,68.9,53.1,29.86,North,0,11.2,11.2,57,0.00,,---,0.00,VWS V13.01,2013-01-23 04:05:00,
2013-01-22 23:15:00,68.7,52.9,29.86,North,0,6.5,7.2,57,0.00,,---,0.00,VWS V13.01,2013-01-23 04:15:00,
2013-01-22 23:25:00,68.7,52.9,29.86,North,0,3.4,7.8,57,0.00,,---,0.00,VWS V13.01,2013-01-23 04:25:00,
2013-01-22 23:30:00,68.7,52.9,29.86,NNE,22,3.6,3.6,57,0.00,,---,0.00,VWS V13.01,2013-01-23 04:30:00,
2013-01-22 23:35:00,68.5,52.2,29.86,NE,45,5.1,5.6,56,0.00,,---,0.00,VWS V13.01,2013-01-23 04:35:00,
2013-01-22 23:45:00,68.5,52.2,29.85,ENE,68,8.3,8.3,56,0.00,,---,0.00,VWS V13.01,2013-01-23 04:45:00,
2013-01-22 23:50:00,68.5,52.2,29.86,NE,45,8.7,8.7,56,0.00,,---,0.00,VWS V13.01,2013-01-23 04:50:00,